sensor_id;sensor_type;location;lat;lon;timestamp;P1;durP1;ratioP1;P2;durP2;ratioP2
73113;SDS011;61301;51.956;5.876;2023-10-19T00:00:37;8.88;;;7.85;;
73113;SDS011;61301;51.956;5.876;2023-10-19T00:03:06;8.88;;;7.22;;
73113;SDS011;61301;51.956;5.876;2023-10-19T00:05:33;9.48;;;8.48;;
73113;SDS011;61301;51.956;5.876;2023-10-19T00:07:59;7.90;;;7.05;;
73113;SDS011;61301;51.956;5.876;2023-10-19T00:10:31;9.20;;;8.30;;
73113;SDS011;61301;51.956;5.876;2023-10-19T00:13:01;6.15;;;5.55;;
73113;SDS011;61301;51.956;5.876;2023-10-19T00:15:32;6.00;;;5.43;;
73113;SDS011;61301;51.956;5.876;2023-10-19T00:18:00;10.00;;;7.10;;
73113;SDS011;61301;51.956;5.876;2023-10-19T00:20:46;8.52;;;7.18;;
73113;SDS011;61301;51.956;5.876;2023-10-19T00:23:33;7.00;;;6.30;;
73113;SDS011;61301;51.956;5.876;2023-10-19T00:26:01;9.60;;;8.60;;
73113;SDS011;61301;51.956;5.876;2023-10-19T00:28:35;10.38;;;9.15;;
73113;SDS011;61301;51.956;5.876;2023-10-19T00:31:04;10.20;;;9.15;;
73113;SDS011;61301;51.956;5.876;2023-10-19T00:33:34;8.80;;;7.63;;
73113;SDS011;61301;51.956;5.876;2023-10-19T00:36:07;9.33;;;7.83;;
73113;SDS011;61301;51.956;5.876;2023-10-19T00:38:36;14.43;;;10.07;;
73113;SDS011;61301;51.956;5.876;2023-10-19T00:41:03;11.55;;;9.18;;
73113;SDS011;61301;51.956;5.876;2023-10-19T00:43:37;11.95;;;10.50;;
73113;SDS011;61301;51.956;5.876;2023-10-19T00:46:11;9.50;;;8.57;;
73113;SDS011;61301;51.956;5.876;2023-10-19T00:49:00;10.88;;;8.55;;
73113;SDS011;61301;51.956;5.876;2023-10-19T00:51:28;8.55;;;6.53;;
73113;SDS011;61301;51.956;5.876;2023-10-19T00:54:03;9.00;;;7.65;;
73113;SDS011;61301;51.956;5.876;2023-10-19T00:56:34;10.60;;;7.72;;
73113;SDS011;61301;51.956;5.876;2023-10-19T00:59:01;10.25;;;8.45;;
73113;SDS011;61301;51.956;5.876;2023-10-19T01:01:41;10.25;;;8.45;;
73113;SDS011;61301;51.956;5.876;2023-10-19T01:04:11;12.00;;;8.82;;
73113;SDS011;61301;51.956;5.876;2023-10-19T01:06:40;11.13;;;9.27;;
73113;SDS011;61301;51.956;5.876;2023-10-19T01:09:10;9.23;;;7.85;;
73113;SDS011;61301;51.956;5.876;2023-10-19T01:11:41;10.98;;;8.23;;
73113;SDS011;61301;51.956;5.876;2023-10-19T01:14:18;11.93;;;10.70;;
73113;SDS011;61301;51.956;5.876;2023-10-19T01:16:48;9.93;;;8.93;;
73113;SDS011;61301;51.956;5.876;2023-10-19T01:19:15;11.93;;;10.73;;
73113;SDS011;61301;51.956;5.876;2023-10-19T01:21:46;12.48;;;10.10;;
73113;SDS011;61301;51.956;5.876;2023-10-19T01:24:17;13.25;;;10.50;;
73113;SDS011;61301;51.956;5.876;2023-10-19T01:27:06;12.70;;;9.48;;
73113;SDS011;61301;51.956;5.876;2023-10-19T01:29:34;11.35;;;10.20;;
73113;SDS011;61301;51.956;5.876;2023-10-19T01:32:03;10.73;;;9.63;;
73113;SDS011;61301;51.956;5.876;2023-10-19T01:34:34;13.25;;;9.93;;
73113;SDS011;61301;51.956;5.876;2023-10-19T01:37:01;12.73;;;10.77;;
73113;SDS011;61301;51.956;5.876;2023-10-19T01:39:33;12.05;;;10.68;;
73113;SDS011;61301;51.956;5.876;2023-10-19T01:42:02;11.32;;;10.13;;
73113;SDS011;61301;51.956;5.876;2023-10-19T01:44:33;13.38;;;10.65;;
73113;SDS011;61301;51.956;5.876;2023-10-19T01:47:01;11.50;;;9.57;;
73113;SDS011;61301;51.956;5.876;2023-10-19T01:49:31;13.35;;;10.55;;
73113;SDS011;61301;51.956;5.876;2023-10-19T01:51:57;11.52;;;10.27;;
73113;SDS011;61301;51.956;5.876;2023-10-19T01:54:23;14.38;;;10.88;;
73113;SDS011;61301;51.956;5.876;2023-10-19T01:56:53;12.77;;;11.13;;
73113;SDS011;61301;51.956;5.876;2023-10-19T01:59:27;12.27;;;10.52;;
73113;SDS011;61301;51.956;5.876;2023-10-19T02:01:56;11.18;;;9.82;;
73113;SDS011;61301;51.956;5.876;2023-10-19T02:04:23;10.52;;;9.15;;
73113;SDS011;61301;51.956;5.876;2023-10-19T02:06:49;11.88;;;9.45;;
73113;SDS011;61301;51.956;5.876;2023-10-19T02:09:19;10.20;;;8.55;;
73113;SDS011;61301;51.956;5.876;2023-10-19T02:11:58;10.30;;;8.40;;
73113;SDS011;61301;51.956;5.876;2023-10-19T02:14:25;12.05;;;8.98;;
73113;SDS011;61301;51.956;5.876;2023-10-19T02:16:56;11.68;;;9.20;;
73113;SDS011;61301;51.956;5.876;2023-10-19T02:19:24;12.02;;;9.45;;
73113;SDS011;61301;51.956;5.876;2023-10-19T02:21:56;8.48;;;7.55;;
73113;SDS011;61301;51.956;5.876;2023-10-19T02:24:27;10.15;;;9.15;;
73113;SDS011;61301;51.956;5.876;2023-10-19T02:26:54;9.73;;;8.73;;
73113;SDS011;61301;51.956;5.876;2023-10-19T02:29:21;9.40;;;7.82;;
73113;SDS011;61301;51.956;5.876;2023-10-19T02:31:48;11.48;;;9.63;;
73113;SDS011;61301;51.956;5.876;2023-10-19T02:34:15;10.55;;;8.50;;
73113;SDS011;61301;51.956;5.876;2023-10-19T02:36:42;9.80;;;8.80;;
73113;SDS011;61301;51.956;5.876;2023-10-19T02:39:10;9.05;;;8.05;;
73113;SDS011;61301;51.956;5.876;2023-10-19T02:41:38;10.30;;;8.60;;
73113;SDS011;61301;51.956;5.876;2023-10-19T02:44:16;5.93;;;5.28;;
73113;SDS011;61301;51.956;5.876;2023-10-19T02:46:44;4.65;;;4.03;;
73113;SDS011;61301;51.956;5.876;2023-10-19T02:49:11;7.63;;;6.13;;
73113;SDS011;61301;51.956;5.876;2023-10-19T02:51:47;6.50;;;5.90;;
73113;SDS011;61301;51.956;5.876;2023-10-19T02:54:14;4.28;;;3.88;;
73113;SDS011;61301;51.956;5.876;2023-10-19T02:56:47;4.35;;;3.95;;
73113;SDS011;61301;51.956;5.876;2023-10-19T02:59:16;5.05;;;3.95;;
73113;SDS011;61301;51.956;5.876;2023-10-19T03:01:47;4.75;;;3.30;;
73113;SDS011;61301;51.956;5.876;2023-10-19T03:04:13;2.10;;;1.90;;
73113;SDS011;61301;51.956;5.876;2023-10-19T03:06:41;1.80;;;1.60;;
73113;SDS011;61301;51.956;5.876;2023-10-19T03:09:07;2.53;;;2.00;;
73113;SDS011;61301;51.956;5.876;2023-10-19T03:11:57;3.35;;;3.05;;
73113;SDS011;61301;51.956;5.876;2023-10-19T03:14:51;3.72;;;2.90;;
73113;SDS011;61301;51.956;5.876;2023-10-19T03:17:17;4.18;;;3.78;;
73113;SDS011;61301;51.956;5.876;2023-10-19T03:19:44;3.60;;;3.30;;
73113;SDS011;61301;51.956;5.876;2023-10-19T03:22:10;4.57;;;3.78;;
73113;SDS011;61301;51.956;5.876;2023-10-19T03:24:37;4.88;;;3.72;;
73113;SDS011;61301;51.956;5.876;2023-10-19T03:27:07;5.22;;;3.78;;
73113;SDS011;61301;51.956;5.876;2023-10-19T03:29:50;7.70;;;4.40;;
73113;SDS011;61301;51.956;5.876;2023-10-19T03:32:21;5.30;;;3.50;;
73113;SDS011;61301;51.956;5.876;2023-10-19T03:34:55;6.20;;;3.17;;
73113;SDS011;61301;51.956;5.876;2023-10-19T03:37:25;6.05;;;3.42;;
73113;SDS011;61301;51.956;5.876;2023-10-19T03:39:55;2.25;;;1.83;;
73113;SDS011;61301;51.956;5.876;2023-10-19T03:42:21;3.22;;;2.40;;
73113;SDS011;61301;51.956;5.876;2023-10-19T03:44:51;2.17;;;1.67;;
73113;SDS011;61301;51.956;5.876;2023-10-19T03:47:21;4.05;;;2.15;;
73113;SDS011;61301;51.956;5.876;2023-10-19T03:49:51;2.15;;;1.63;;
73113;SDS011;61301;51.956;5.876;2023-10-19T03:52:17;3.33;;;1.50;;
73113;SDS011;61301;51.956;5.876;2023-10-19T03:54:43;3.95;;;2.08;;
73113;SDS011;61301;51.956;5.876;2023-10-19T03:57:13;2.78;;;1.60;;
73113;SDS011;61301;51.956;5.876;2023-10-19T03:59:45;3.35;;;1.75;;
73113;SDS011;61301;51.956;5.876;2023-10-19T04:02:15;3.42;;;1.88;;
73113;SDS011;61301;51.956;5.876;2023-10-19T04:04:42;5.63;;;2.10;;
73113;SDS011;61301;51.956;5.876;2023-10-19T04:07:09;4.50;;;2.22;;
73113;SDS011;61301;51.956;5.876;2023-10-19T04:09:55;4.63;;;3.03;;
73113;SDS011;61301;51.956;5.876;2023-10-19T04:12:30;3.20;;;2.50;;
73113;SDS011;61301;51.956;5.876;2023-10-19T04:14:57;5.88;;;3.75;;
73113;SDS011;61301;51.956;5.876;2023-10-19T04:17:34;4.10;;;3.45;;
73113;SDS011;61301;51.956;5.876;2023-10-19T04:20:02;6.13;;;3.70;;
73113;SDS011;61301;51.956;5.876;2023-10-19T04:22:45;4.28;;;3.60;;
73113;SDS011;61301;51.956;5.876;2023-10-19T04:25:19;6.05;;;4.40;;
73113;SDS011;61301;51.956;5.876;2023-10-19T04:27:48;5.90;;;3.58;;
73113;SDS011;61301;51.956;5.876;2023-10-19T04:30:15;6.18;;;4.20;;
73113;SDS011;61301;51.956;5.876;2023-10-19T04:32:48;4.00;;;3.53;;
73113;SDS011;61301;51.956;5.876;2023-10-19T04:35:15;4.93;;;3.20;;
73113;SDS011;61301;51.956;5.876;2023-10-19T04:37:50;5.15;;;3.70;;
73113;SDS011;61301;51.956;5.876;2023-10-19T04:40:20;5.80;;;3.58;;
73113;SDS011;61301;51.956;5.876;2023-10-19T04:42:47;4.43;;;3.72;;
73113;SDS011;61301;51.956;5.876;2023-10-19T04:45:14;5.28;;;3.78;;
73113;SDS011;61301;51.956;5.876;2023-10-19T04:47:40;4.60;;;3.42;;
73113;SDS011;61301;51.956;5.876;2023-10-19T04:50:06;4.18;;;3.25;;
73113;SDS011;61301;51.956;5.876;2023-10-19T04:52:33;3.28;;;2.72;;
73113;SDS011;61301;51.956;5.876;2023-10-19T04:54:59;4.55;;;3.38;;
73113;SDS011;61301;51.956;5.876;2023-10-19T04:57:26;5.40;;;3.70;;
73113;SDS011;61301;51.956;5.876;2023-10-19T04:59:52;6.88;;;3.67;;
73113;SDS011;61301;51.956;5.876;2023-10-19T05:02:18;4.95;;;3.75;;
73113;SDS011;61301;51.956;5.876;2023-10-19T05:04:44;6.78;;;3.63;;
73113;SDS011;61301;51.956;5.876;2023-10-19T05:07:14;6.18;;;3.35;;
73113;SDS011;61301;51.956;5.876;2023-10-19T05:09:43;4.50;;;2.88;;
73113;SDS011;61301;51.956;5.876;2023-10-19T05:12:10;4.32;;;2.80;;
73113;SDS011;61301;51.956;5.876;2023-10-19T05:14:40;4.50;;;2.80;;
73113;SDS011;61301;51.956;5.876;2023-10-19T05:17:09;3.40;;;2.70;;
73113;SDS011;61301;51.956;5.876;2023-10-19T05:19:36;3.25;;;2.60;;
73113;SDS011;61301;51.956;5.876;2023-10-19T05:22:05;4.50;;;3.30;;
73113;SDS011;61301;51.956;5.876;2023-10-19T05:24:33;3.33;;;3.00;;
73113;SDS011;61301;51.956;5.876;2023-10-19T05:26:59;4.20;;;3.13;;
73113;SDS011;61301;51.956;5.876;2023-10-19T05:29:28;2.38;;;2.17;;
73113;SDS011;61301;51.956;5.876;2023-10-19T05:31:56;3.45;;;2.28;;
73113;SDS011;61301;51.956;5.876;2023-10-19T05:34:24;2.92;;;2.40;;
73113;SDS011;61301;51.956;5.876;2023-10-19T05:36:52;4.65;;;2.35;;
73113;SDS011;61301;51.956;5.876;2023-10-19T05:39:19;3.10;;;2.38;;
73113;SDS011;61301;51.956;5.876;2023-10-19T05:41:46;3.28;;;2.30;;
73113;SDS011;61301;51.956;5.876;2023-10-19T05:44:12;2.97;;;2.13;;
73113;SDS011;61301;51.956;5.876;2023-10-19T05:46:38;4.28;;;1.73;;
73113;SDS011;61301;51.956;5.876;2023-10-19T05:49:06;1.40;;;1.00;;
73113;SDS011;61301;51.956;5.876;2023-10-19T05:51:32;0.68;;;0.60;;
73113;SDS011;61301;51.956;5.876;2023-10-19T05:53:58;2.05;;;1.20;;
73113;SDS011;61301;51.956;5.876;2023-10-19T05:56:27;0.75;;;0.65;;
73113;SDS011;61301;51.956;5.876;2023-10-19T05:58:54;0.93;;;0.65;;
73113;SDS011;61301;51.956;5.876;2023-10-19T06:01:20;0.93;;;0.80;;
73113;SDS011;61301;51.956;5.876;2023-10-19T06:03:47;0.70;;;0.45;;
73113;SDS011;61301;51.956;5.876;2023-10-19T06:06:13;0.90;;;0.73;;
73113;SDS011;61301;51.956;5.876;2023-10-19T06:08:42;0.75;;;0.75;;
73113;SDS011;61301;51.956;5.876;2023-10-19T06:11:08;1.35;;;0.98;;
73113;SDS011;61301;51.956;5.876;2023-10-19T06:13:35;0.60;;;0.60;;
73113;SDS011;61301;51.956;5.876;2023-10-19T06:16:00;0.63;;;0.57;;
73113;SDS011;61301;51.956;5.876;2023-10-19T06:18:26;0.50;;;0.50;;
73113;SDS011;61301;51.956;5.876;2023-10-19T06:20:55;0.50;;;0.50;;
73113;SDS011;61301;51.956;5.876;2023-10-19T06:23:21;1.67;;;0.73;;
73113;SDS011;61301;51.956;5.876;2023-10-19T06:25:47;0.75;;;0.60;;
73113;SDS011;61301;51.956;5.876;2023-10-19T06:28:13;1.05;;;0.60;;
73113;SDS011;61301;51.956;5.876;2023-10-19T06:30:39;1.50;;;0.70;;
73113;SDS011;61301;51.956;5.876;2023-10-19T06:33:06;0.88;;;0.60;;
73113;SDS011;61301;51.956;5.876;2023-10-19T06:35:32;1.02;;;0.68;;
73113;SDS011;61301;51.956;5.876;2023-10-19T06:38:00;5.40;;;1.98;;
73113;SDS011;61301;51.956;5.876;2023-10-19T06:40:27;2.75;;;1.67;;
73113;SDS011;61301;51.956;5.876;2023-10-19T06:42:54;1.23;;;0.98;;
73113;SDS011;61301;51.956;5.876;2023-10-19T06:45:24;3.38;;;1.40;;
73113;SDS011;61301;51.956;5.876;2023-10-19T06:47:51;1.95;;;1.20;;
73113;SDS011;61301;51.956;5.876;2023-10-19T06:50:19;1.85;;;1.13;;
73113;SDS011;61301;51.956;5.876;2023-10-19T06:52:46;2.50;;;1.00;;
73113;SDS011;61301;51.956;5.876;2023-10-19T06:55:13;5.38;;;1.73;;
73113;SDS011;61301;51.956;5.876;2023-10-19T06:57:42;3.97;;;1.33;;
73113;SDS011;61301;51.956;5.876;2023-10-19T07:00:12;4.55;;;1.38;;
73113;SDS011;61301;51.956;5.876;2023-10-19T07:02:40;2.92;;;1.80;;
73113;SDS011;61301;51.956;5.876;2023-10-19T07:05:08;1.48;;;0.85;;
73113;SDS011;61301;51.956;5.876;2023-10-19T07:07:40;1.98;;;0.80;;
73113;SDS011;61301;51.956;5.876;2023-10-19T07:10:07;3.65;;;1.20;;
73113;SDS011;61301;51.956;5.876;2023-10-19T07:12:38;2.50;;;1.08;;
73113;SDS011;61301;51.956;5.876;2023-10-19T07:15:07;2.53;;;0.90;;
73113;SDS011;61301;51.956;5.876;2023-10-19T07:17:37;3.47;;;0.95;;
73113;SDS011;61301;51.956;5.876;2023-10-19T07:20:04;1.85;;;1.05;;
73113;SDS011;61301;51.956;5.876;2023-10-19T07:22:35;2.80;;;0.75;;
73113;SDS011;61301;51.956;5.876;2023-10-19T07:25:05;1.75;;;1.10;;
73113;SDS011;61301;51.956;5.876;2023-10-19T07:27:32;2.67;;;1.00;;
73113;SDS011;61301;51.956;5.876;2023-10-19T07:30:00;1.70;;;1.00;;
73113;SDS011;61301;51.956;5.876;2023-10-19T07:32:26;2.30;;;0.80;;
73113;SDS011;61301;51.956;5.876;2023-10-19T07:34:54;2.55;;;1.00;;
73113;SDS011;61301;51.956;5.876;2023-10-19T07:37:20;0.93;;;0.60;;
73113;SDS011;61301;51.956;5.876;2023-10-19T07:39:47;2.30;;;0.80;;
73113;SDS011;61301;51.956;5.876;2023-10-19T07:42:16;2.28;;;0.90;;
73113;SDS011;61301;51.956;5.876;2023-10-19T07:44:42;2.28;;;0.80;;
73113;SDS011;61301;51.956;5.876;2023-10-19T07:47:09;3.90;;;0.90;;
73113;SDS011;61301;51.956;5.876;2023-10-19T07:49:38;3.60;;;1.00;;
73113;SDS011;61301;51.956;5.876;2023-10-19T07:52:04;3.00;;;1.23;;
73113;SDS011;61301;51.956;5.876;2023-10-19T07:54:36;4.63;;;1.20;;
73113;SDS011;61301;51.956;5.876;2023-10-19T07:57:03;4.35;;;1.15;;
73113;SDS011;61301;51.956;5.876;2023-10-19T07:59:32;5.18;;;1.33;;
73113;SDS011;61301;51.956;5.876;2023-10-19T08:01:59;3.78;;;1.30;;
73113;SDS011;61301;51.956;5.876;2023-10-19T08:04:28;3.80;;;0.90;;
73113;SDS011;61301;51.956;5.876;2023-10-19T08:06:54;3.95;;;1.10;;
73113;SDS011;61301;51.956;5.876;2023-10-19T08:09:27;5.25;;;1.25;;
73113;SDS011;61301;51.956;5.876;2023-10-19T08:12:00;3.08;;;1.40;;
73113;SDS011;61301;51.956;5.876;2023-10-19T08:14:27;6.50;;;1.10;;
73113;SDS011;61301;51.956;5.876;2023-10-19T08:16:53;6.28;;;1.38;;
73113;SDS011;61301;51.956;5.876;2023-10-19T08:19:19;7.05;;;1.23;;
73113;SDS011;61301;51.956;5.876;2023-10-19T08:21:46;5.28;;;1.10;;
73113;SDS011;61301;51.956;5.876;2023-10-19T08:24:12;5.90;;;1.02;;
73113;SDS011;61301;51.956;5.876;2023-10-19T08:26:46;6.40;;;1.63;;
73113;SDS011;61301;51.956;5.876;2023-10-19T08:29:12;6.95;;;1.83;;
73113;SDS011;61301;51.956;5.876;2023-10-19T08:31:42;5.38;;;1.48;;
73113;SDS011;61301;51.956;5.876;2023-10-19T08:34:10;3.22;;;0.98;;
73113;SDS011;61301;51.956;5.876;2023-10-19T08:36:37;3.35;;;1.38;;
73113;SDS011;61301;51.956;5.876;2023-10-19T08:39:07;2.33;;;0.90;;
73113;SDS011;61301;51.956;5.876;2023-10-19T08:41:34;3.22;;;1.10;;
73113;SDS011;61301;51.956;5.876;2023-10-19T08:44:02;4.88;;;1.30;;
73113;SDS011;61301;51.956;5.876;2023-10-19T08:46:40;7.38;;;1.90;;
73113;SDS011;61301;51.956;5.876;2023-10-19T08:49:14;5.00;;;1.38;;
73113;SDS011;61301;51.956;5.876;2023-10-19T08:51:44;3.55;;;1.25;;
73113;SDS011;61301;51.956;5.876;2023-10-19T08:54:14;4.90;;;1.77;;
73113;SDS011;61301;51.956;5.876;2023-10-19T08:56:40;3.72;;;1.42;;
73113;SDS011;61301;51.956;5.876;2023-10-19T08:59:07;6.88;;;2.28;;
73113;SDS011;61301;51.956;5.876;2023-10-19T09:01:36;9.32;;;2.40;;
73113;SDS011;61301;51.956;5.876;2023-10-19T09:04:03;10.65;;;2.50;;
73113;SDS011;61301;51.956;5.876;2023-10-19T09:06:37;7.90;;;1.80;;
73113;SDS011;61301;51.956;5.876;2023-10-19T09:09:10;7.80;;;1.88;;
73113;SDS011;61301;51.956;5.876;2023-10-19T09:11:45;5.88;;;1.60;;
73113;SDS011;61301;51.956;5.876;2023-10-19T09:14:12;6.45;;;1.60;;
73113;SDS011;61301;51.956;5.876;2023-10-19T09:16:53;5.55;;;1.83;;
73113;SDS011;61301;51.956;5.876;2023-10-19T09:19:35;6.32;;;1.77;;
73113;SDS011;61301;51.956;5.876;2023-10-19T09:22:03;5.82;;;1.60;;
73113;SDS011;61301;51.956;5.876;2023-10-19T09:24:50;6.75;;;1.73;;
73113;SDS011;61301;51.956;5.876;2023-10-19T09:27:19;3.38;;;1.45;;
73113;SDS011;61301;51.956;5.876;2023-10-19T09:29:46;4.72;;;1.20;;
73113;SDS011;61301;51.956;5.876;2023-10-19T09:32:13;7.45;;;2.08;;
73113;SDS011;61301;51.956;5.876;2023-10-19T09:34:39;6.15;;;1.80;;
73113;SDS011;61301;51.956;5.876;2023-10-19T09:37:09;11.18;;;2.78;;
73113;SDS011;61301;51.956;5.876;2023-10-19T09:39:37;8.05;;;2.05;;
73113;SDS011;61301;51.956;5.876;2023-10-19T09:42:06;5.10;;;1.73;;
73113;SDS011;61301;51.956;5.876;2023-10-19T09:44:41;5.22;;;1.95;;
73113;SDS011;61301;51.956;5.876;2023-10-19T09:47:11;6.25;;;2.42;;
73113;SDS011;61301;51.956;5.876;2023-10-19T09:49:53;5.93;;;1.80;;
73113;SDS011;61301;51.956;5.876;2023-10-19T09:52:19;6.15;;;2.83;;
73113;SDS011;61301;51.956;5.876;2023-10-19T09:57:31;5.93;;;2.10;;
73113;SDS011;61301;51.956;5.876;2023-10-19T10:00:14;10.15;;;3.40;;
73113;SDS011;61301;51.956;5.876;2023-10-19T10:02:43;12.40;;;2.70;;
73113;SDS011;61301;51.956;5.876;2023-10-19T10:18:24;5.25;;;2.50;;
73113;SDS011;61301;51.956;5.876;2023-10-19T10:23:39;5.60;;;2.25;;
73113;SDS011;61301;51.956;5.876;2023-10-19T10:26:06;6.15;;;2.20;;
73113;SDS011;61301;51.956;5.876;2023-10-19T10:28:34;5.05;;;1.95;;
73113;SDS011;61301;51.956;5.876;2023-10-19T10:31:07;6.22;;;1.98;;
73113;SDS011;61301;51.956;5.876;2023-10-19T10:36:07;7.53;;;2.38;;
73113;SDS011;61301;51.956;5.876;2023-10-19T10:38:34;7.93;;;2.22;;
73113;SDS011;61301;51.956;5.876;2023-10-19T10:41:03;10.52;;;3.17;;
73113;SDS011;61301;51.956;5.876;2023-10-19T10:43:30;8.02;;;2.20;;
73113;SDS011;61301;51.956;5.876;2023-10-19T10:46:03;9.68;;;2.80;;
73113;SDS011;61301;51.956;5.876;2023-10-19T10:48:40;7.75;;;2.45;;
73113;SDS011;61301;51.956;5.876;2023-10-19T10:51:17;7.93;;;2.50;;
73113;SDS011;61301;51.956;5.876;2023-10-19T10:53:47;4.47;;;2.05;;
73113;SDS011;61301;51.956;5.876;2023-10-19T10:56:15;6.22;;;1.85;;
73113;SDS011;61301;51.956;5.876;2023-10-19T10:58:41;7.05;;;2.60;;
73113;SDS011;61301;51.956;5.876;2023-10-19T11:01:07;7.30;;;2.35;;
73113;SDS011;61301;51.956;5.876;2023-10-19T11:03:36;9.18;;;2.63;;
73113;SDS011;61301;51.956;5.876;2023-10-19T11:06:04;6.13;;;2.63;;
73113;SDS011;61301;51.956;5.876;2023-10-19T11:08:33;11.30;;;2.40;;
73113;SDS011;61301;51.956;5.876;2023-10-19T11:11:02;5.03;;;1.80;;
73113;SDS011;61301;51.956;5.876;2023-10-19T11:13:32;9.60;;;2.40;;
73113;SDS011;61301;51.956;5.876;2023-10-19T11:16:02;8.18;;;2.03;;
73113;SDS011;61301;51.956;5.876;2023-10-19T11:18:29;6.65;;;2.45;;
73113;SDS011;61301;51.956;5.876;2023-10-19T11:20:58;9.38;;;2.67;;
73113;SDS011;61301;51.956;5.876;2023-10-19T11:26:02;10.05;;;2.22;;
73113;SDS011;61301;51.956;5.876;2023-10-19T11:28:30;9.60;;;2.20;;
73113;SDS011;61301;51.956;5.876;2023-10-19T11:31:13;4.13;;;1.58;;
73113;SDS011;61301;51.956;5.876;2023-10-19T11:33:50;6.22;;;2.30;;
73113;SDS011;61301;51.956;5.876;2023-10-19T11:36:18;9.73;;;2.47;;
73113;SDS011;61301;51.956;5.876;2023-10-19T11:38:45;6.63;;;1.88;;
73113;SDS011;61301;51.956;5.876;2023-10-19T11:41:13;5.15;;;1.77;;
73113;SDS011;61301;51.956;5.876;2023-10-19T11:43:41;10.02;;;2.15;;
73113;SDS011;61301;51.956;5.876;2023-10-19T11:46:09;10.57;;;3.20;;
73113;SDS011;61301;51.956;5.876;2023-10-19T11:48:37;7.22;;;2.00;;
73113;SDS011;61301;51.956;5.876;2023-10-19T11:51:05;6.32;;;1.70;;
73113;SDS011;61301;51.956;5.876;2023-10-19T11:53:32;10.57;;;2.28;;
73113;SDS011;61301;51.956;5.876;2023-10-19T11:56:03;10.90;;;2.50;;
73113;SDS011;61301;51.956;5.876;2023-10-19T11:58:35;5.90;;;1.83;;
73113;SDS011;61301;51.956;5.876;2023-10-19T12:01:03;9.82;;;2.10;;
73113;SDS011;61301;51.956;5.876;2023-10-19T12:03:38;9.00;;;1.85;;
73113;SDS011;61301;51.956;5.876;2023-10-19T12:06:14;8.98;;;2.00;;
73113;SDS011;61301;51.956;5.876;2023-10-19T12:08:49;8.20;;;2.22;;
73113;SDS011;61301;51.956;5.876;2023-10-19T12:11:15;8.13;;;1.85;;
73113;SDS011;61301;51.956;5.876;2023-10-19T12:13:42;5.78;;;1.58;;
73113;SDS011;61301;51.956;5.876;2023-10-19T12:16:09;6.72;;;2.17;;
73113;SDS011;61301;51.956;5.876;2023-10-19T12:18:38;6.43;;;1.75;;
73113;SDS011;61301;51.956;5.876;2023-10-19T12:21:05;6.80;;;1.88;;
73113;SDS011;61301;51.956;5.876;2023-10-19T12:23:33;7.72;;;1.98;;
73113;SDS011;61301;51.956;5.876;2023-10-19T12:25:59;5.53;;;2.08;;
73113;SDS011;61301;51.956;5.876;2023-10-19T12:28:29;6.97;;;2.03;;
73113;SDS011;61301;51.956;5.876;2023-10-19T12:30:55;6.00;;;2.72;;
73113;SDS011;61301;51.956;5.876;2023-10-19T12:33:21;8.15;;;2.10;;
73113;SDS011;61301;51.956;5.876;2023-10-19T12:35:48;6.57;;;2.38;;
73113;SDS011;61301;51.956;5.876;2023-10-19T12:38:17;12.00;;;2.78;;
73113;SDS011;61301;51.956;5.876;2023-10-19T12:40:46;8.07;;;1.55;;
73113;SDS011;61301;51.956;5.876;2023-10-19T12:43:16;9.95;;;2.22;;
73113;SDS011;61301;51.956;5.876;2023-10-19T12:45:44;8.32;;;1.90;;
73113;SDS011;61301;51.956;5.876;2023-10-19T12:48:22;8.15;;;1.83;;
73113;SDS011;61301;51.956;5.876;2023-10-19T12:50:51;8.65;;;1.85;;
73113;SDS011;61301;51.956;5.876;2023-10-19T12:53:17;6.18;;;2.17;;
73113;SDS011;61301;51.956;5.876;2023-10-19T12:55:43;7.40;;;1.90;;
73113;SDS011;61301;51.956;5.876;2023-10-19T12:58:10;9.30;;;2.00;;
73113;SDS011;61301;51.956;5.876;2023-10-19T13:00:37;5.32;;;1.52;;
73113;SDS011;61301;51.956;5.876;2023-10-19T13:03:06;6.13;;;2.13;;
73113;SDS011;61301;51.956;5.876;2023-10-19T13:05:34;7.95;;;1.38;;
73113;SDS011;61301;51.956;5.876;2023-10-19T13:08:01;6.78;;;1.73;;
73113;SDS011;61301;51.956;5.876;2023-10-19T13:10:31;8.95;;;1.85;;
73113;SDS011;61301;51.956;5.876;2023-10-19T13:13:02;5.85;;;1.95;;
73113;SDS011;61301;51.956;5.876;2023-10-19T13:15:34;8.40;;;2.38;;
73113;SDS011;61301;51.956;5.876;2023-10-19T13:18:02;9.07;;;2.38;;
73113;SDS011;61301;51.956;5.876;2023-10-19T13:20:29;6.88;;;2.00;;
73113;SDS011;61301;51.956;5.876;2023-10-19T13:25:31;5.95;;;1.90;;
73113;SDS011;61301;51.956;5.876;2023-10-19T13:28:08;7.88;;;2.40;;
73113;SDS011;61301;51.956;5.876;2023-10-19T13:30:35;11.38;;;2.83;;
73113;SDS011;61301;51.956;5.876;2023-10-19T13:33:05;7.57;;;2.33;;
73113;SDS011;61301;51.956;5.876;2023-10-19T13:35:38;7.55;;;2.30;;
73113;SDS011;61301;51.956;5.876;2023-10-19T13:38:05;7.70;;;2.30;;
73113;SDS011;61301;51.956;5.876;2023-10-19T13:40:32;7.75;;;2.38;;
73113;SDS011;61301;51.956;5.876;2023-10-19T13:42:58;7.30;;;2.38;;
73113;SDS011;61301;51.956;5.876;2023-10-19T13:45:25;7.55;;;2.50;;
73113;SDS011;61301;51.956;5.876;2023-10-19T13:47:51;7.78;;;2.53;;
73113;SDS011;61301;51.956;5.876;2023-10-19T13:50:23;6.32;;;2.40;;
73113;SDS011;61301;51.956;5.876;2023-10-19T13:52:51;2.35;;;1.27;;
73113;SDS011;61301;51.956;5.876;2023-10-19T13:55:18;4.05;;;1.65;;
73113;SDS011;61301;51.956;5.876;2023-10-19T13:57:46;7.85;;;2.67;;
73113;SDS011;61301;51.956;5.876;2023-10-19T14:00:14;5.25;;;2.08;;
73113;SDS011;61301;51.956;5.876;2023-10-19T14:03:07;8.20;;;3.10;;
73113;SDS011;61301;51.956;5.876;2023-10-19T14:05:41;11.05;;;2.95;;
73113;SDS011;61301;51.956;5.876;2023-10-19T14:08:16;6.22;;;2.80;;
73113;SDS011;61301;51.956;5.876;2023-10-19T14:10:43;6.22;;;2.15;;
73113;SDS011;61301;51.956;5.876;2023-10-19T14:13:09;9.88;;;2.50;;
73113;SDS011;61301;51.956;5.876;2023-10-19T14:15:37;8.07;;;3.22;;
73113;SDS011;61301;51.956;5.876;2023-10-19T14:18:04;9.10;;;2.90;;
73113;SDS011;61301;51.956;5.876;2023-10-19T14:20:30;8.27;;;3.03;;
73113;SDS011;61301;51.956;5.876;2023-10-19T14:22:57;8.95;;;3.28;;
73113;SDS011;61301;51.956;5.876;2023-10-19T14:25:23;9.23;;;2.83;;
73113;SDS011;61301;51.956;5.876;2023-10-19T14:27:50;7.93;;;2.45;;
73113;SDS011;61301;51.956;5.876;2023-10-19T14:30:21;9.32;;;2.55;;
73113;SDS011;61301;51.956;5.876;2023-10-19T14:32:48;7.70;;;2.80;;
73113;SDS011;61301;51.956;5.876;2023-10-19T14:35:15;10.27;;;3.13;;
73113;SDS011;61301;51.956;5.876;2023-10-19T14:37:43;9.30;;;2.60;;
73113;SDS011;61301;51.956;5.876;2023-10-19T14:40:11;5.78;;;2.20;;
73113;SDS011;61301;51.956;5.876;2023-10-19T14:42:40;6.35;;;2.33;;
73113;SDS011;61301;51.956;5.876;2023-10-19T14:45:10;7.00;;;2.40;;
73113;SDS011;61301;51.956;5.876;2023-10-19T14:47:39;5.93;;;1.95;;
73113;SDS011;61301;51.956;5.876;2023-10-19T14:50:10;7.88;;;2.47;;
73113;SDS011;61301;51.956;5.876;2023-10-19T14:52:42;7.55;;;2.90;;
73113;SDS011;61301;51.956;5.876;2023-10-19T14:55:09;8.32;;;2.45;;
73113;SDS011;61301;51.956;5.876;2023-10-19T14:57:36;8.90;;;3.00;;
73113;SDS011;61301;51.956;5.876;2023-10-19T15:00:04;7.85;;;2.67;;
73113;SDS011;61301;51.956;5.876;2023-10-19T15:02:42;7.75;;;2.83;;
73113;SDS011;61301;51.956;5.876;2023-10-19T15:05:11;10.13;;;2.63;;
73113;SDS011;61301;51.956;5.876;2023-10-19T15:07:41;7.53;;;2.53;;
73113;SDS011;61301;51.956;5.876;2023-10-19T15:10:09;8.95;;;2.63;;
73113;SDS011;61301;51.956;5.876;2023-10-19T15:12:40;9.07;;;3.05;;
73113;SDS011;61301;51.956;5.876;2023-10-19T15:15:07;9.40;;;2.42;;
73113;SDS011;61301;51.956;5.876;2023-10-19T15:17:37;8.00;;;2.25;;
73113;SDS011;61301;51.956;5.876;2023-10-19T15:20:05;4.68;;;1.80;;
73113;SDS011;61301;51.956;5.876;2023-10-19T15:22:32;5.15;;;2.03;;
73113;SDS011;61301;51.956;5.876;2023-10-19T15:24:59;8.27;;;2.65;;